createdAt,value
2023-04-04T00:00:14.804Z,75.21
2023-04-04T00:02:41.606Z,75.34
2023-04-04T00:05:08.726Z,75.35
2023-04-04T00:07:35.244Z,75.43
2023-04-04T00:10:01.996Z,75.25
2023-04-04T00:12:29.943Z,75.42
2023-04-04T00:14:57.696Z,75.24
2023-04-04T00:17:24.161Z,75.89
2023-04-04T00:19:50.654Z,75.70
2023-04-04T00:22:18.164Z,75.70
2023-04-04T00:24:44.626Z,75.41
2023-04-04T00:27:11.149Z,75.72
2023-04-04T00:29:37.957Z,76.21
2023-04-04T00:32:04.457Z,76.07
2023-04-04T00:34:31.120Z,76.27
2023-04-04T00:36:57.858Z,75.82
2023-04-04T00:39:24.371Z,76.48
2023-04-04T00:41:51.188Z,75.83
2023-04-04T00:44:17.728Z,76.24
2023-04-04T00:46:44.504Z,76.40
2023-04-04T00:49:11.580Z,76.41
2023-04-04T00:51:38.082Z,76.59
2023-04-04T00:54:04.568Z,76.73
2023-04-04T00:56:33.160Z,76.92
2023-04-04T00:59:00.914Z,77.17
2023-04-04T01:01:27.595Z,76.89
2023-04-04T01:03:54.553Z,77.22
2023-04-04T01:06:21.277Z,77.19
2023-04-04T01:08:48.532Z,77.23
2023-04-04T01:11:15.613Z,77.23
2023-04-04T01:13:43.436Z,77.67
2023-04-04T01:16:09.886Z,77.97
2023-04-04T01:18:37.001Z,77.89
2023-04-04T01:21:10.012Z,77.15
2023-04-04T01:23:46.313Z,77.66
2023-04-04T01:26:12.772Z,77.41
2023-04-04T01:28:39.233Z,76.89
2023-04-04T01:31:07.252Z,77.71
2023-04-04T01:33:50.122Z,77.66
2023-04-04T01:36:24.571Z,77.93
2023-04-04T01:39:20.135Z,78.26
2023-04-04T01:41:48.359Z,78.27
2023-04-04T01:44:16.398Z,78.83
2023-04-04T01:46:42.840Z,78.34
2023-04-04T01:49:10.963Z,78.29
2023-04-04T01:51:38.869Z,78.86
2023-04-04T01:54:05.306Z,78.52
2023-04-04T01:56:32.880Z,78.81
2023-04-04T01:58:59.373Z,79.48
2023-04-04T02:01:25.863Z,79.43
2023-04-04T02:03:52.897Z,79.92
2023-04-04T02:06:19.409Z,79.88
2023-04-04T02:08:45.882Z,79.75
2023-04-04T02:11:12.380Z,80.02
2023-04-04T02:13:41.568Z,79.22
2023-04-04T02:16:08.044Z,79.24
2023-04-04T02:18:34.584Z,78.71
2023-04-04T02:21:01.098Z,78.94
2023-04-04T02:23:27.511Z,78.74
2023-04-04T02:25:53.988Z,78.46
2023-04-04T02:28:20.671Z,78.31
2023-04-04T02:30:47.253Z,79.45
2023-04-04T02:33:13.735Z,79.12
2023-04-04T02:35:40.241Z,79.27
2023-04-04T02:38:06.698Z,79.22
2023-04-04T02:40:33.196Z,79.36
2023-04-04T02:42:59.619Z,79.67
2023-04-04T02:45:26.229Z,79.86
2023-04-04T02:47:53.012Z,79.82
2023-04-04T02:50:19.614Z,80.25
2023-04-04T02:52:46.339Z,80.33
2023-04-04T02:55:12.773Z,80.83
2023-04-04T02:57:40.403Z,81.08
2023-04-04T03:00:07.320Z,81.35
2023-04-04T03:02:33.857Z,81.48
2023-04-04T03:05:00.609Z,81.31
2023-04-04T03:07:27.036Z,81.40
2023-04-04T03:09:53.455Z,81.03
2023-04-04T03:12:20.557Z,80.86
2023-04-04T03:14:47.008Z,81.35
2023-04-04T03:17:14.960Z,81.49
2023-04-04T03:19:42.130Z,81.35
2023-04-04T03:22:08.707Z,81.62
2023-04-04T03:24:35.700Z,81.35
2023-04-04T03:27:02.578Z,81.68
2023-04-04T03:29:29.121Z,82.20
2023-04-04T03:31:55.806Z,82.18
2023-04-04T03:34:23.306Z,82.30
2023-04-04T03:36:49.779Z,81.91
2023-04-04T03:39:17.086Z,82.42
2023-04-04T03:41:43.542Z,82.71
2023-04-04T03:44:10.016Z,82.11
2023-04-04T03:46:36.647Z,81.51
2023-04-04T03:49:03.410Z,82.30
2023-04-04T03:51:29.952Z,82.43
2023-04-04T03:53:56.734Z,82.41
2023-04-04T03:56:23.213Z,82.72
2023-04-04T03:58:49.781Z,82.91
2023-04-04T04:01:16.310Z,82.81
2023-04-04T04:03:42.819Z,83.17
2023-04-04T04:06:09.253Z,83.47
2023-04-04T04:08:35.739Z,82.89
2023-04-04T04:11:06.064Z,83.21
2023-04-04T04:13:32.652Z,83.24
2023-04-04T04:15:59.124Z,83.04
2023-04-04T04:18:25.599Z,82.49
2023-04-04T04:20:56.507Z,82.31
2023-04-04T04:23:22.941Z,83.13
2023-04-04T04:25:49.510Z,83.28
2023-04-04T04:28:16.105Z,83.21
2023-04-04T04:30:42.604Z,83.35
2023-04-04T04:33:09.171Z,83.38
2023-04-04T04:35:41.657Z,83.16
2023-04-04T04:38:08.333Z,82.49
2023-04-04T04:40:36.800Z,82.97
2023-04-04T04:43:03.245Z,82.39
2023-04-04T04:45:29.729Z,82.64
2023-04-04T04:47:56.214Z,82.75
2023-04-04T04:50:23.005Z,82.78
2023-04-04T04:52:52.692Z,83.16
2023-04-04T04:55:19.196Z,83.01
2023-04-04T04:57:47.287Z,83.23
2023-04-04T05:00:13.955Z,83.71
2023-04-04T05:02:40.743Z,83.23
2023-04-04T05:05:07.612Z,83.18
2023-04-04T05:07:34.036Z,82.27
2023-04-04T05:10:00.456Z,82.72
2023-04-04T05:12:27.233Z,82.08
2023-04-04T05:14:53.875Z,82.53
2023-04-04T05:17:22.621Z,82.51
2023-04-04T05:19:49.244Z,82.33
2023-04-04T05:22:15.651Z,82.44
2023-04-04T05:24:43.205Z,82.42
2023-04-04T05:27:09.745Z,83.13
2023-04-04T05:29:36.443Z,83.01
2023-04-04T05:32:02.898Z,83.45
2023-04-04T05:34:29.463Z,82.93
2023-04-04T05:36:56.428Z,83.15
2023-04-04T05:39:23.053Z,83.12
2023-04-04T05:41:49.502Z,83.38
2023-04-04T05:44:16.257Z,83.37
2023-04-04T05:46:42.717Z,83.60
2023-04-04T05:49:09.242Z,83.21
2023-04-04T05:51:35.834Z,83.41
2023-04-04T05:54:02.294Z,82.73
2023-04-04T05:56:28.887Z,83.15
2023-04-04T05:58:55.694Z,83.09
2023-04-04T06:01:22.276Z,83.43
2023-04-04T06:03:48.817Z,83.25
2023-04-04T06:06:15.921Z,83.35
2023-04-04T06:08:53.023Z,83.04
2023-04-04T06:11:21.841Z,83.16
2023-04-04T06:13:48.320Z,83.01
2023-04-04T06:16:14.804Z,82.31
2023-04-04T06:18:41.413Z,81.97
2023-04-04T06:21:07.856Z,82.14
2023-04-04T06:23:34.460Z,81.66
2023-04-04T06:29:21.525Z,81.94
2023-04-04T06:32:06.957Z,82.67
2023-04-04T06:34:51.978Z,82.34
2023-04-04T06:37:37.252Z,81.58
2023-04-04T06:40:22.738Z,82.36
2023-04-04T09:13:32.853Z,71.11
2023-04-04T09:16:18.247Z,72.93
2023-04-04T09:19:03.904Z,73.10
2023-04-04T09:21:49.660Z,74.03
2023-04-04T09:24:41.470Z,70.80
2023-04-04T09:27:27.234Z,69.39
2023-04-04T09:30:12.366Z,68.28
2023-04-04T09:33:01.357Z,67.51
2023-04-04T09:35:52.570Z,66.34
2023-04-04T09:38:41.083Z,65.42
2023-04-04T09:41:27.513Z,66.34
2023-04-04T09:44:13.285Z,65.09
2023-04-04T09:47:30.623Z,65.44
2023-04-04T09:50:22.972Z,66.33
2023-04-04T09:53:08.510Z,64.10
2023-04-04T09:55:55.496Z,63.85
2023-04-04T09:58:49.498Z,65.29
2023-04-04T10:01:43.723Z,65.40
2023-04-04T10:04:32.304Z,66.45
2023-04-04T10:07:18.481Z,66.29
2023-04-04T10:10:07.665Z,66.36
2023-04-04T10:12:53.129Z,64.92
2023-04-04T10:15:38.540Z,66.07
2023-04-04T10:18:26.592Z,65.37
2023-04-04T10:21:15.665Z,64.49
2023-04-04T10:24:08.860Z,60.31
2023-04-04T10:26:55.444Z,62.31
2023-04-04T10:29:40.347Z,60.84
2023-04-04T10:32:42.276Z,62.05
2023-04-04T10:35:28.473Z,62.16
2023-04-04T10:38:16.341Z,62.75
2023-04-04T10:41:03.053Z,63.30
2023-04-04T10:43:49.743Z,63.07
2023-04-04T10:46:36.990Z,63.24
2023-04-04T10:49:22.857Z,63.36
2023-04-04T10:52:09.664Z,63.47
2023-04-04T10:55:01.357Z,63.50
2023-04-04T10:57:51.957Z,63.04
2023-04-04T11:00:51.206Z,62.19
2023-04-04T11:04:14.424Z,63.61
2023-04-04T11:07:18.974Z,63.50
2023-04-04T11:10:14.163Z,62.95
2023-04-04T11:13:12.937Z,64.77
2023-04-04T11:16:07.542Z,64.42
2023-04-04T11:18:59.852Z,64.54
2023-04-04T11:21:46.721Z,65.98
2023-04-04T11:24:31.798Z,65.43
2023-04-04T11:27:17.426Z,64.61
2023-04-04T11:30:14.295Z,62.98
2023-04-04T11:33:06.627Z,64.13
2023-04-04T11:35:53.670Z,64.31
2023-04-04T11:38:40.371Z,64.27
2023-04-04T11:41:44.254Z,64.41
2023-04-04T11:44:31.250Z,64.51
2023-04-04T11:47:20.527Z,63.81
2023-04-04T11:50:10.006Z,61.17
2023-04-04T11:52:56.430Z,62.00
2023-04-04T11:55:43.728Z,62.30
2023-04-04T11:58:28.824Z,63.25
2023-04-04T12:01:14.800Z,63.83
2023-04-04T12:04:01.399Z,63.82
2023-04-04T12:06:51.646Z,62.96
2023-04-04T12:09:37.401Z,61.95
2023-04-04T12:12:22.708Z,63.18
2023-04-04T12:15:16.999Z,63.24
2023-04-04T12:18:06.920Z,61.87
2023-04-04T12:20:52.859Z,61.89
2023-04-04T12:23:38.180Z,62.80
2023-04-04T12:26:24.045Z,61.32
2023-04-04T12:29:11.920Z,60.61
2023-04-04T12:31:58.117Z,60.79
2023-04-04T12:34:48.522Z,60.82
2023-04-04T12:37:36.967Z,62.13
2023-04-04T12:40:22.214Z,59.43
2023-04-04T12:43:09.415Z,60.83
2023-04-04T12:45:56.978Z,59.50
2023-04-04T12:48:42.121Z,59.66
2023-04-04T12:51:33.706Z,60.63
2023-04-04T12:54:30.858Z,60.33
2023-04-04T12:57:20.413Z,59.67
2023-04-04T13:00:08.318Z,60.37
2023-04-04T13:02:54.463Z,60.76
2023-04-04T13:05:40.508Z,60.69
2023-04-04T13:08:25.771Z,60.75
2023-04-04T13:11:11.398Z,61.81
2023-04-04T13:14:01.740Z,60.56
2023-04-04T13:17:08.541Z,61.76
2023-04-04T13:19:53.831Z,61.79
2023-04-04T13:22:40.141Z,62.09
2023-04-04T13:25:25.981Z,62.29
2023-04-04T13:28:11.734Z,62.73
2023-04-04T13:37:12.926Z,62.61
2023-04-04T13:39:58.327Z,63.57
2023-04-04T13:42:43.716Z,63.53
2023-04-04T13:45:29.015Z,63.41
2023-04-04T13:48:14.512Z,63.37
2023-04-04T13:50:59.620Z,63.43
2023-04-04T13:53:45.355Z,63.84
2023-04-04T13:56:30.551Z,63.42
2023-04-04T13:59:15.665Z,63.70
2023-04-04T14:02:01.176Z,63.63
2023-04-04T14:04:46.407Z,62.93
2023-04-04T14:07:31.651Z,64.09
2023-04-04T14:10:17.061Z,64.06
2023-04-04T14:13:02.330Z,63.83
2023-04-04T14:15:47.594Z,63.05
2023-04-04T14:18:34.467Z,63.11
2023-04-04T14:21:19.970Z,62.35
2023-04-04T14:24:06.034Z,62.08
2023-04-04T14:26:50.933Z,62.06
2023-04-04T14:29:36.778Z,62.63
2023-04-04T14:32:21.857Z,62.69
2023-04-04T14:35:07.336Z,60.70
2023-04-04T14:37:53.965Z,61.12
2023-04-04T14:40:40.380Z,60.54
2023-04-04T14:43:25.542Z,61.04
2023-04-04T14:46:11.402Z,60.47
2023-04-04T14:48:56.452Z,59.98
2023-04-04T14:51:41.958Z,59.72
2023-04-04T14:54:27.267Z,60.45
2023-04-04T14:57:12.598Z,61.24
2023-04-04T14:59:58.101Z,62.07
2023-04-04T15:02:43.426Z,61.91
2023-04-04T15:05:28.831Z,61.53
2023-04-04T15:08:13.867Z,61.63
2023-04-04T15:11:02.217Z,61.79
2023-04-04T15:13:47.252Z,61.41
2023-04-04T15:16:33.528Z,61.97
2023-04-04T15:19:19.032Z,62.63
2023-04-04T15:22:05.084Z,62.35
2023-04-04T15:24:50.574Z,62.55
2023-04-04T15:27:36.304Z,62.58
2023-04-04T15:30:21.852Z,62.49
2023-04-04T15:33:07.570Z,62.87
2023-04-04T15:35:52.926Z,62.48
2023-04-04T15:38:39.006Z,63.13
2023-04-04T15:41:24.430Z,63.66
2023-04-04T15:44:09.783Z,64.08
2023-04-04T15:46:55.070Z,63.41
2023-04-04T15:49:40.362Z,63.84
2023-04-04T15:52:26.519Z,64.69
2023-04-04T15:55:16.878Z,64.74
2023-04-04T15:58:02.089Z,64.62
2023-04-04T16:00:47.678Z,64.55
2023-04-04T16:03:33.118Z,64.53
2023-04-04T16:06:18.397Z,64.72
2023-04-04T16:09:04.122Z,65.07
2023-04-04T16:11:49.385Z,65.17
2023-04-04T16:14:34.814Z,65.64
2023-04-04T16:17:19.883Z,66.16
2023-04-04T16:20:06.305Z,66.17
2023-04-04T16:22:53.382Z,66.55
2023-04-04T16:25:39.103Z,66.70
2023-04-04T16:28:24.277Z,66.58
2023-04-04T16:31:09.736Z,67.00
2023-04-04T16:33:54.696Z,66.84
2023-04-04T16:36:39.933Z,66.41
2023-04-04T16:39:25.799Z,66.62
2023-04-04T16:42:11.371Z,66.83
2023-04-04T16:44:56.660Z,67.01
2023-04-04T16:47:41.991Z,66.87
2023-04-04T16:50:27.479Z,67.07
2023-04-04T16:53:12.732Z,67.72
2023-04-04T16:55:58.125Z,67.29
2023-04-04T16:58:45.106Z,67.65
2023-04-04T17:01:31.889Z,67.78
2023-04-04T17:04:17.120Z,68.27
2023-04-04T17:07:03.225Z,68.29
2023-04-04T17:09:48.943Z,68.60
2023-04-04T17:12:34.959Z,68.99
2023-04-04T17:15:20.255Z,69.33
2023-04-04T17:18:05.669Z,69.83
2023-04-04T17:20:52.290Z,69.85
2023-04-04T17:23:37.525Z,69.94
2023-04-04T17:26:22.802Z,70.19
2023-04-04T17:29:08.048Z,70.89
2023-04-04T17:31:55.649Z,71.66
2023-04-04T17:34:42.165Z,72.05
2023-04-04T17:37:29.042Z,72.63
2023-04-04T17:40:15.313Z,72.55
2023-04-04T17:43:00.865Z,73.00
2023-04-04T17:45:45.957Z,73.36
2023-04-04T17:48:33.562Z,72.90
2023-04-04T17:51:19.046Z,73.35
2023-04-04T17:54:06.634Z,73.40
2023-04-04T17:56:52.396Z,73.56
2023-04-04T17:59:37.780Z,73.85
2023-04-04T18:02:23.298Z,73.82
2023-04-04T18:05:09.801Z,73.83
2023-04-04T18:07:55.075Z,74.33
2023-04-04T18:10:40.557Z,74.66
2023-04-04T18:13:25.956Z,74.65
2023-04-04T18:16:11.242Z,74.66
2023-04-04T18:18:57.041Z,74.88
2023-04-04T18:21:42.252Z,74.98
2023-04-04T18:24:28.205Z,75.74
2023-04-04T18:27:13.541Z,75.82
2023-04-04T18:29:58.814Z,75.08
2023-04-04T18:32:44.659Z,75.38
2023-04-04T18:35:30.188Z,75.73
2023-04-04T18:38:15.584Z,76.07
2023-04-04T18:41:00.786Z,76.84
2023-04-04T18:43:46.545Z,76.11
2023-04-04T18:46:31.682Z,76.43
2023-04-04T18:49:17.059Z,76.40
2023-04-04T18:52:02.604Z,76.28
2023-04-04T18:54:47.806Z,76.16
2023-04-04T18:57:34.436Z,76.36
2023-04-04T19:00:20.231Z,76.30
2023-04-04T19:03:07.815Z,76.67
2023-04-04T19:05:53.894Z,77.11
2023-04-04T19:08:40.518Z,77.19
2023-04-04T19:11:25.965Z,77.22
2023-04-04T19:14:12.321Z,76.98
2023-04-04T19:16:57.552Z,76.65
2023-04-04T19:19:43.390Z,76.37
2023-04-04T19:22:28.417Z,76.46
2023-04-04T19:25:14.002Z,76.41
2023-04-04T19:27:59.200Z,76.95
2023-04-04T19:30:49.043Z,77.17
2023-04-04T19:33:34.419Z,77.16
2023-04-04T19:36:19.796Z,76.91
2023-04-04T19:39:05.505Z,76.99
2023-04-04T19:41:51.278Z,77.27
2023-04-04T19:44:39.175Z,77.01
2023-04-04T19:47:24.267Z,76.80
2023-04-04T19:50:09.984Z,77.13
2023-04-04T19:52:55.108Z,77.08
2023-04-04T19:55:40.726Z,77.24
2023-04-04T19:58:26.544Z,77.32
2023-04-04T20:01:16.791Z,77.52
2023-04-04T20:04:10.312Z,77.48
2023-04-04T20:06:55.722Z,77.43
2023-04-04T20:09:42.180Z,77.47
2023-04-04T20:12:28.959Z,77.43
2023-04-04T20:15:32.018Z,76.72
2023-04-04T20:18:23.063Z,76.64
2023-04-04T20:21:10.880Z,76.50
2023-04-04T20:23:58.266Z,76.37
2023-04-04T20:26:52.381Z,76.73
2023-04-04T20:29:37.705Z,76.20
2023-04-04T20:32:23.234Z,76.86
2023-04-04T20:35:30.910Z,76.55
2023-04-04T20:38:20.820Z,76.64
2023-04-04T20:41:14.070Z,76.17
2023-04-04T20:43:59.865Z,76.04
2023-04-04T20:46:45.132Z,76.33
2023-04-04T20:49:30.540Z,75.85
2023-04-04T20:52:23.051Z,75.83
2023-04-04T20:55:08.542Z,76.07
2023-04-04T20:57:56.664Z,75.28
2023-04-04T21:00:42.689Z,75.01
2023-04-04T21:03:37.845Z,75.34
2023-04-04T21:06:29.719Z,74.94
2023-04-04T21:09:15.043Z,75.19
2023-04-04T21:12:01.758Z,75.48
2023-04-04T21:14:47.019Z,75.62
2023-04-04T21:17:32.198Z,75.09
2023-04-04T21:20:49.731Z,75.40
2023-04-04T21:23:37.532Z,75.26
2023-04-04T21:26:28.952Z,74.30
2023-04-04T21:29:25.661Z,74.42
2023-04-04T21:32:10.994Z,74.55
2023-04-04T21:34:56.279Z,74.19
2023-04-04T21:37:44.768Z,73.78
2023-04-04T21:40:30.918Z,74.08
2023-04-04T21:43:15.764Z,74.38
2023-04-04T21:46:01.102Z,73.89
2023-04-04T21:48:47.099Z,73.57
2023-04-04T21:51:32.781Z,73.63
2023-04-04T21:54:18.221Z,73.75
2023-04-04T21:57:03.230Z,73.57
2023-04-04T21:59:48.801Z,72.90
2023-04-04T22:02:34.071Z,73.13
2023-04-04T22:05:21.618Z,72.79
2023-04-04T22:08:09.278Z,72.82
2023-04-04T22:10:54.498Z,72.96
2023-04-04T22:13:42.967Z,72.78
2023-04-04T22:16:30.699Z,72.74
2023-04-04T22:19:16.222Z,73.06
2023-04-04T22:22:01.464Z,72.79
2023-04-04T22:24:50.980Z,72.96
2023-04-04T22:27:39.189Z,72.51
2023-04-04T22:30:25.953Z,72.34
2023-04-04T22:33:11.983Z,71.85
2023-04-04T22:35:59.041Z,72.27
2023-04-04T22:38:44.100Z,72.33
2023-04-04T22:41:29.475Z,72.14
2023-04-04T22:44:14.560Z,72.02
2023-04-04T22:47:01.854Z,72.41
2023-04-04T22:49:48.559Z,72.04
2023-04-04T22:52:34.850Z,71.79
2023-04-04T22:55:23.414Z,72.07
2023-04-04T22:58:08.731Z,71.84
2023-04-04T23:00:54.030Z,71.85
2023-04-04T23:03:39.424Z,71.89
2023-04-04T23:06:24.806Z,71.56
2023-04-04T23:09:10.151Z,71.79
2023-04-04T23:11:56.136Z,71.93
2023-04-04T23:14:41.582Z,71.55
2023-04-04T23:17:26.936Z,71.78
2023-04-04T23:20:12.198Z,71.98
2023-04-04T23:22:57.223Z,71.64
2023-04-04T23:25:42.554Z,71.92
2023-04-04T23:28:29.384Z,71.96
2023-04-04T23:31:16.263Z,71.92
2023-04-04T23:34:01.580Z,72.55
2023-04-04T23:36:46.678Z,72.42
2023-04-04T23:39:31.974Z,71.91
2023-04-04T23:42:17.253Z,72.18
2023-04-04T23:45:04.669Z,72.17
2023-04-04T23:47:50.007Z,72.04
2023-04-04T23:50:35.777Z,71.94
2023-04-04T23:53:21.488Z,71.79
2023-04-04T23:56:06.987Z,72.07
2023-04-04T23:58:52.317Z,71.74
